Time;durP1;ratioP1;P1;durP2;ratioP2;P2;SDS_P1;SDS_P2;PMS_P1;PMS_P2;Temp;Humidity;BMP_temperature;BMP_pressure;BME280_temperature;BME280_humidity;BME280_pressure;Samples;Min_cycle;Max_cycle;Signal;HPM_P1;HPM_P2
2023/12/21 00:02:15;;;;;;;0.90;0.90;;;;;7.30;98167.00;;;;5033356;28;20073;-64
2023/12/21 00:04:44;;;;;;;0.93;0.93;;;;;7.30;98161.00;;;;5032559;28;20414;-64
2023/12/21 00:07:10;;;;;;;0.70;0.70;;;;;7.20;98162.00;;;;5032698;28;20052;-65
2023/12/21 00:09:37;;;;;;;0.85;0.85;;;;;7.20;98164.00;;;;5033046;28;20124;-64
2023/12/21 00:12:04;;;;;;;0.80;0.80;;;;;7.30;98158.00;;;;5033111;28;20072;-65
2023/12/21 00:14:30;;;;;;;0.93;0.90;;;;;7.30;98156.00;;;;5032522;28;20395;-64
2023/12/21 00:16:57;;;;;;;1.30;0.93;;;;;7.30;98155.00;;;;5032764;28;20682;-64
2023/12/21 00:19:24;;;;;;;0.80;0.80;;;;;7.40;98151.00;;;;5032949;28;20495;-64
2023/12/21 00:21:51;;;;;;;1.48;0.80;;;;;7.40;98139.00;;;;5032885;28;20046;-65
2023/12/21 00:24:17;;;;;;;0.88;0.70;;;;;7.40;98123.00;;;;5031042;28;20053;-64
2023/12/21 00:26:47;;;;;;;0.85;0.80;;;;;7.40;98119.00;;;;5032626;28;20046;-63
2023/12/21 00:29:14;;;;;;;1.10;0.70;;;;;7.40;98128.00;;;;5032086;28;20063;-64
2023/12/21 00:31:41;;;;;;;1.08;0.60;;;;;7.40;98120.00;;;;5031247;28;20046;-64
2023/12/21 00:34:07;;;;;;;0.68;0.68;;;;;7.40;98127.00;;;;5030831;28;20042;-64
2023/12/21 00:36:34;;;;;;;0.65;0.65;;;;;7.50;98111.00;;;;5032744;28;20096;-64
2023/12/21 00:39:01;;;;;;;1.15;0.63;;;;;7.50;98103.00;;;;5032945;28;20089;-64
2023/12/21 00:41:27;;;;;;;0.60;0.60;;;;;7.40;98098.00;;;;5031570;28;20413;-64
2023/12/21 00:43:54;;;;;;;0.75;0.75;;;;;7.50;98083.00;;;;5032090;28;20560;-64
2023/12/21 00:46:20;;;;;;;0.65;0.65;;;;;7.50;98081.00;;;;5032376;28;20041;-64
2023/12/21 00:48:47;;;;;;;0.65;0.60;;;;;7.50;98076.00;;;;5032388;28;20497;-65
2023/12/21 00:51:14;;;;;;;0.63;0.57;;;;;7.50;98066.00;;;;5032142;28;20056;-63
2023/12/21 00:53:40;;;;;;;0.65;0.50;;;;;7.50;98071.00;;;;5032183;28;20506;-63
2023/12/21 00:56:07;;;;;;;0.50;0.50;;;;;7.50;98058.00;;;;5032369;28;20041;-63
2023/12/21 00:58:34;;;;;;;0.50;0.50;;;;;7.50;98057.00;;;;5032674;28;20075;-63
2023/12/21 01:01:01;;;;;;;0.40;0.40;;;;;7.60;98055.00;;;;5032788;28;20049;-63
2023/12/21 01:03:27;;;;;;;0.75;0.50;;;;;7.60;98051.00;;;;5031732;28;20064;-62
2023/12/21 01:05:54;;;;;;;0.65;0.52;;;;;7.60;98048.00;;;;5032512;28;20072;-63
2023/12/21 01:08:21;;;;;;;0.40;0.40;;;;;7.60;98048.00;;;;5032051;28;20084;-63
2023/12/21 01:10:47;;;;;;;0.50;0.50;;;;;7.60;98044.00;;;;5032194;28;20120;-63
2023/12/21 01:13:14;;;;;;;0.55;0.40;;;;;7.60;98033.00;;;;5032029;28;20547;-63
2023/12/21 01:15:41;;;;;;;0.30;0.30;;;;;7.60;98048.00;;;;5031552;28;20048;-63
2023/12/21 01:18:07;;;;;;;0.40;0.40;;;;;7.60;98036.00;;;;5031843;28;20048;-63
2023/12/21 01:20:34;;;;;;;0.40;0.40;;;;;7.60;98039.00;;;;5032025;28;20049;-62
2023/12/21 01:23:00;;;;;;;0.40;0.40;;;;;7.60;98043.00;;;;5032108;28;20044;-63
2023/12/21 01:25:27;;;;;;;0.40;0.40;;;;;7.60;98052.00;;;;5030339;28;20038;-64
2023/12/21 01:27:53;;;;;;;0.40;0.40;;;;;7.50;98033.00;;;;5030506;28;20519;-64
2023/12/21 01:30:21;;;;;;;0.30;0.30;;;;;7.50;98033.00;;;;5031902;28;20498;-63
2023/12/21 01:32:48;;;;;;;0.88;0.47;;;;;7.50;98039.00;;;;5031823;28;20050;-62
2023/12/21 01:35:15;;;;;;;0.38;0.38;;;;;7.50;98026.00;;;;5030618;28;20045;-63
2023/12/21 01:37:41;;;;;;;0.32;0.30;;;;;7.60;98017.00;;;;5031014;28;20045;-63
2023/12/21 01:40:08;;;;;;;0.40;0.40;;;;;7.50;98012.00;;;;5032055;28;20057;-61
2023/12/21 01:42:35;;;;;;;0.38;0.38;;;;;7.50;98021.00;;;;5030973;28;20042;-63
2023/12/21 01:45:02;;;;;;;0.40;0.40;;;;;7.60;98017.00;;;;5030187;28;20045;-63
2023/12/21 01:47:29;;;;;;;0.80;0.50;;;;;7.50;98016.00;;;;5031522;28;20050;-62
2023/12/21 01:49:56;;;;;;;0.30;0.30;;;;;7.60;98004.00;;;;5031827;28;20074;-64
2023/12/21 01:52:23;;;;;;;0.40;0.40;;;;;7.60;97992.00;;;;5030606;28;20537;-63
2023/12/21 01:54:49;;;;;;;0.40;0.40;;;;;7.60;98003.00;;;;5029872;28;20045;-63
2023/12/21 01:57:16;;;;;;;0.30;0.30;;;;;7.50;97991.00;;;;5031595;28;20490;-63
2023/12/21 01:59:43;;;;;;;0.32;0.32;;;;;7.50;97991.00;;;;5031638;28;20042;-63
2023/12/21 02:02:10;;;;;;;0.32;0.32;;;;;7.50;97982.00;;;;5032621;28;20033;-63
2023/12/21 02:04:37;;;;;;;0.30;0.30;;;;;7.50;97978.00;;;;5033548;28;20087;-63
2023/12/21 02:07:04;;;;;;;0.30;0.30;;;;;7.60;97987.00;;;;5035301;28;20049;-63
2023/12/21 02:09:30;;;;;;;0.40;0.40;;;;;7.60;97981.00;;;;5035362;28;20041;-64
2023/12/21 02:11:57;;;;;;;0.32;0.32;;;;;7.70;97975.00;;;;5035382;28;20045;-64
2023/12/21 02:14:23;;;;;;;0.30;0.30;;;;;7.70;97965.00;;;;5034690;28;20045;-63
2023/12/21 02:16:58;;;;;;;0.30;0.30;;;;;7.70;97963.00;;;;5035082;28;20045;-63
2023/12/21 02:19:25;;;;;;;0.30;0.30;;;;;7.70;97960.00;;;;5035305;28;20051;-63
2023/12/21 02:21:55;;;;;;;0.40;0.40;;;;;7.70;97961.00;;;;5035100;28;20128;-63
2023/12/21 02:24:23;;;;;;;2.42;0.50;;;;;7.70;97950.00;;;;5034372;28;20080;-62
2023/12/21 02:26:50;;;;;;;0.30;0.30;;;;;7.70;97939.00;;;;5035020;28;20037;-63
2023/12/21 02:29:17;;;;;;;0.30;0.30;;;;;7.80;97936.00;;;;5035068;28;20072;-63
2023/12/21 02:31:44;;;;;;;0.30;0.30;;;;;7.80;97934.00;;;;5035126;28;20133;-63
2023/12/21 02:34:11;;;;;;;0.40;0.40;;;;;7.80;97909.00;;;;5034301;28;20383;-63
2023/12/21 02:36:38;;;;;;;0.40;0.40;;;;;7.80;97896.00;;;;5034740;28;20045;-62
2023/12/21 02:39:04;;;;;;;0.38;0.38;;;;;7.80;97901.00;;;;5034819;28;20069;-63
2023/12/21 02:41:31;;;;;;;0.30;0.30;;;;;7.70;97899.00;;;;5033630;28;20041;-63
2023/12/21 02:43:57;;;;;;;0.30;0.30;;;;;7.70;97899.00;;;;5034056;28;20046;-63
2023/12/21 02:46:26;;;;;;;0.30;0.30;;;;;7.80;97908.00;;;;5034654;28;20041;-63
2023/12/21 02:48:53;;;;;;;1.27;0.40;;;;;7.80;97909.00;;;;5034500;28;20133;-63
2023/12/21 02:51:20;;;;;;;0.40;0.40;;;;;7.70;97910.00;;;;5034615;28;20042;-63
2023/12/21 02:53:46;;;;;;;0.30;0.30;;;;;7.70;97884.00;;;;5033858;28;20075;-63
2023/12/21 02:56:13;;;;;;;0.40;0.40;;;;;7.70;97886.00;;;;5034372;28;20120;-64
2023/12/21 02:58:40;;;;;;;0.40;0.40;;;;;7.80;97885.00;;;;5034330;28;20437;-64
2023/12/21 03:01:07;;;;;;;0.30;0.30;;;;;7.80;97870.00;;;;5034612;28;20459;-63
2023/12/21 03:03:33;;;;;;;0.30;0.30;;;;;7.80;97873.00;;;;5032612;28;20049;-63
2023/12/21 03:06:00;;;;;;;0.30;0.30;;;;;7.80;97875.00;;;;5035029;28;20041;-63
2023/12/21 03:08:26;;;;;;;0.30;0.30;;;;;7.90;97871.00;;;;5034413;28;20501;-61
2023/12/21 03:10:53;;;;;;;0.50;0.45;;;;;7.80;97866.00;;;;5034221;28;20045;-63
2023/12/21 03:13:19;;;;;;;0.63;0.40;;;;;7.80;97860.00;;;;5033899;28;20127;-63
2023/12/21 03:15:46;;;;;;;0.32;0.32;;;;;7.80;97846.00;;;;5033867;28;20388;-63
2023/12/21 03:18:13;;;;;;;0.40;0.40;;;;;7.80;97849.00;;;;5034046;28;20128;-64
2023/12/21 03:20:39;;;;;;;0.30;0.30;;;;;7.80;97854.00;;;;5032976;28;20045;-63
2023/12/21 03:23:06;;;;;;;0.30;0.30;;;;;7.80;97843.00;;;;5032666;28;20053;-63
2023/12/21 03:25:33;;;;;;;0.30;0.30;;;;;7.80;97844.00;;;;5033580;28;20052;-63
2023/12/21 03:28:00;;;;;;;0.30;0.30;;;;;7.80;97849.00;;;;5032456;28;20132;-63
2023/12/21 03:30:26;;;;;;;0.40;0.40;;;;;7.90;97843.00;;;;5033991;28;20103;-64
2023/12/21 03:32:53;;;;;;;0.30;0.30;;;;;7.90;97843.00;;;;5033816;28;20128;-64
2023/12/21 03:35:20;;;;;;;0.20;0.20;;;;;7.90;97829.00;;;;5033199;28;20045;-63
2023/12/21 03:37:46;;;;;;;0.30;0.30;;;;;7.90;97839.00;;;;5033674;28;20044;-63
2023/12/21 03:40:13;;;;;;;0.30;0.30;;;;;7.90;97842.00;;;;5033611;28;20053;-63
2023/12/21 03:42:40;;;;;;;0.52;0.40;;;;;7.90;97843.00;;;;5033559;28;20091;-63
2023/12/21 03:45:07;;;;;;;0.30;0.30;;;;;7.90;97819.00;;;;5031880;28;20554;-64
2023/12/21 03:47:33;;;;;;;0.40;0.40;;;;;7.90;97828.00;;;;5033542;28;20128;-63
2023/12/21 03:50:00;;;;;;;0.30;0.30;;;;;7.90;97818.00;;;;5033602;28;20046;-62
2023/12/21 03:52:27;;;;;;;0.40;0.40;;;;;7.90;97821.00;;;;5033450;28;20097;-62
2023/12/21 03:54:54;;;;;;;0.30;0.30;;;;;7.90;97810.00;;;;5031502;28;20053;-62
2023/12/21 03:57:20;;;;;;;0.30;0.30;;;;;7.90;97799.00;;;;5032002;28;20051;-63
2023/12/21 03:59:47;;;;;;;0.32;0.30;;;;;7.90;97789.00;;;;5033338;28;20414;-63
2023/12/21 04:02:14;;;;;;;0.30;0.30;;;;;8.00;97798.00;;;;5033310;28;20379;-63
2023/12/21 04:04:40;;;;;;;0.30;0.30;;;;;8.00;97788.00;;;;5032444;28;20498;-62
2023/12/21 04:07:07;;;;;;;0.20;0.20;;;;;8.00;97785.00;;;;5032997;28;20045;-63
2023/12/21 04:09:33;;;;;;;0.52;0.52;;;;;8.00;97786.00;;;;5031785;28;20049;-63
2023/12/21 04:12:00;;;;;;;0.75;0.40;;;;;8.00;97783.00;;;;5033120;28;20552;-65
2023/12/21 04:14:26;;;;;;;0.50;0.50;;;;;8.00;97790.00;;;;5032489;28;20072;-62
2023/12/21 04:16:53;;;;;;;0.30;0.30;;;;;8.00;97778.00;;;;5032898;28;20503;-63
2023/12/21 04:19:20;;;;;;;0.32;0.30;;;;;8.10;97792.00;;;;5032886;28;20529;-63
2023/12/21 04:21:47;;;;;;;0.73;0.73;;;;;8.00;97782.00;;;;5032967;28;20107;-64
2023/12/21 04:24:14;;;;;;;0.50;0.50;;;;;8.10;97772.00;;;;5031832;28;20068;-63
2023/12/21 04:26:41;;;;;;;0.40;0.40;;;;;8.10;97770.00;;;;5032495;28;20052;-64
2023/12/21 04:29:07;;;;;;;0.20;0.20;;;;;8.10;97779.00;;;;5031546;28;20046;-63
2023/12/21 04:31:34;;;;;;;0.30;0.30;;;;;8.10;97762.00;;;;5032786;28;20037;-63
2023/12/21 04:34:00;;;;;;;0.60;0.60;;;;;8.10;97778.00;;;;5032088;28;20124;-63
2023/12/21 04:36:28;;;;;;;0.80;0.50;;;;;8.10;97766.00;;;;5032549;28;20115;-63
2023/12/21 04:38:55;;;;;;;1.60;0.70;;;;;8.10;97746.00;;;;5032604;28;20045;-63
2023/12/21 04:41:22;;;;;;;0.50;0.50;;;;;8.20;97735.00;;;;5032538;28;20565;-64
2023/12/21 04:43:49;;;;;;;0.40;0.40;;;;;8.20;97729.00;;;;5030778;28;20045;-63
2023/12/21 04:46:17;;;;;;;0.40;0.40;;;;;8.20;97726.00;;;;5032258;28;20513;-63
2023/12/21 04:48:43;;;;;;;0.30;0.30;;;;;8.20;97717.00;;;;5032390;28;20074;-62
2023/12/21 04:51:16;;;;;;;0.40;0.40;;;;;8.20;97715.00;;;;5032409;28;20128;-63
2023/12/21 04:53:44;;;;;;;0.40;0.40;;;;;8.20;97723.00;;;;5031817;28;20079;-63
2023/12/21 04:56:10;;;;;;;0.30;0.30;;;;;8.30;97723.00;;;;5032687;28;20052;-64
2023/12/21 04:58:38;;;;;;;0.40;0.30;;;;;8.30;97721.00;;;;5032445;28;20083;-64
2023/12/21 05:01:05;;;;;;;0.30;0.30;;;;;8.30;97721.00;;;;5032359;28;20055;-63
2023/12/21 05:03:32;;;;;;;0.30;0.30;;;;;8.30;97724.00;;;;5031679;28;20046;-63
2023/12/21 05:05:59;;;;;;;0.40;0.40;;;;;8.30;97719.00;;;;5032071;28;20073;-64
2023/12/21 05:08:26;;;;;;;0.40;0.40;;;;;8.20;97706.00;;;;5032039;28;20046;-62
2023/12/21 05:10:53;;;;;;;0.40;0.40;;;;;8.30;97689.00;;;;5032202;28;20065;-63
2023/12/21 05:13:19;;;;;;;0.40;0.40;;;;;8.20;97699.00;;;;5032105;28;20049;-63
2023/12/21 05:15:46;;;;;;;0.73;0.30;;;;;8.20;97690.00;;;;5031624;28;20064;-61
2023/12/21 05:18:13;;;;;;;0.30;0.30;;;;;8.30;97674.00;;;;5031811;28;20140;-63
2023/12/21 05:20:40;;;;;;;0.30;0.30;;;;;8.20;97674.00;;;;5032148;28;20041;-63
2023/12/21 05:23:06;;;;;;;0.50;0.50;;;;;8.30;97667.00;;;;5032238;28;20128;-64
2023/12/21 05:25:33;;;;;;;0.30;0.30;;;;;8.30;97679.00;;;;5031622;28;20487;-64
2023/12/21 05:27:59;;;;;;;0.40;0.40;;;;;8.30;97694.00;;;;5030665;28;20055;-64
2023/12/21 05:30:26;;;;;;;0.43;0.40;;;;;8.30;97682.00;;;;5031979;28;20429;-64
2023/12/21 05:32:53;;;;;;;0.30;0.30;;;;;8.20;97679.00;;;;5033101;28;20049;-62
2023/12/21 05:35:19;;;;;;;0.40;0.40;;;;;8.30;97663.00;;;;5032461;28;20056;-64
2023/12/21 05:37:46;;;;;;;0.40;0.40;;;;;8.20;97658.00;;;;5034539;28;20056;-64
2023/12/21 05:40:15;;;;;;;1.60;0.30;;;;;8.30;97653.00;;;;5035864;28;20053;-64
2023/12/21 05:42:42;;;;;;;0.30;0.30;;;;;8.30;97653.00;;;;5036076;28;20043;-64
2023/12/21 05:45:08;;;;;;;0.45;0.45;;;;;8.30;97643.00;;;;5035161;28;20383;-64
2023/12/21 05:47:35;;;;;;;0.30;0.30;;;;;8.30;97639.00;;;;5035687;28;20447;-63
2023/12/21 05:50:02;;;;;;;0.30;0.30;;;;;8.30;97641.00;;;;5035584;28;20391;-64
2023/12/21 05:52:29;;;;;;;0.30;0.30;;;;;8.30;97637.00;;;;5035730;28;20049;-64
2023/12/21 05:54:56;;;;;;;0.40;0.40;;;;;8.30;97626.00;;;;5034041;28;20053;-63
2023/12/21 05:57:23;;;;;;;0.55;0.40;;;;;8.30;97633.00;;;;5035695;28;20128;-64
2023/12/21 05:59:49;;;;;;;0.40;0.40;;;;;8.20;97621.00;;;;5035447;28;20060;-62
2023/12/21 06:02:16;;;;;;;0.40;0.40;;;;;8.20;97604.00;;;;5035947;28;20485;-64
2023/12/21 06:04:43;;;;;;;2.80;1.10;;;;;8.20;97607.00;;;;5035103;28;20048;-64
2023/12/21 06:07:10;;;;;;;0.60;0.60;;;;;8.20;97604.00;;;;5035404;28;20046;-64
2023/12/21 06:09:36;;;;;;;0.40;0.40;;;;;8.20;97607.00;;;;5035305;28;20037;-64
2023/12/21 06:12:04;;;;;;;0.40;0.40;;;;;8.30;97602.00;;;;5035472;28;20413;-64
2023/12/21 06:14:31;;;;;;;0.40;0.40;;;;;8.30;97603.00;;;;5034832;28;20049;-64
2023/12/21 06:16:57;;;;;;;0.40;0.40;;;;;8.30;97606.00;;;;5035181;28;20041;-64
2023/12/21 06:19:24;;;;;;;0.40;0.40;;;;;8.30;97599.00;;;;5035167;28;20043;-63
2023/12/21 06:21:51;;;;;;;0.30;0.30;;;;;8.30;97604.00;;;;5035093;28;20117;-64
2023/12/21 06:24:17;;;;;;;0.50;0.50;;;;;8.30;97606.00;;;;5034571;28;20124;-64
2023/12/21 06:26:44;;;;;;;0.40;0.40;;;;;8.40;97607.00;;;;5035072;28;20052;-63
2023/12/21 06:29:11;;;;;;;0.30;0.30;;;;;8.40;97597.00;;;;5034950;28;20068;-63
2023/12/21 06:31:37;;;;;;;1.17;0.60;;;;;8.40;97584.00;;;;5034899;28;20068;-63
2023/12/21 06:34:04;;;;;;;0.38;0.38;;;;;8.40;97580.00;;;;5034316;28;20056;-64
2023/12/21 06:36:31;;;;;;;0.30;0.30;;;;;8.30;97598.00;;;;5034993;28;20068;-63
2023/12/21 06:38:58;;;;;;;0.30;0.30;;;;;8.30;97592.00;;;;5034869;28;20068;-64
2023/12/21 06:41:25;;;;;;;0.40;0.40;;;;;8.40;97575.00;;;;5034767;28;20510;-63
2023/12/21 06:43:52;;;;;;;0.40;0.40;;;;;8.40;97571.00;;;;5033087;28;20060;-63
2023/12/21 06:46:20;;;;;;;0.32;0.32;;;;;8.40;97565.00;;;;5035021;28;20563;-63
2023/12/21 06:48:47;;;;;;;0.50;0.50;;;;;8.40;97562.00;;;;5032865;28;20072;-61
2023/12/21 06:51:14;;;;;;;0.63;0.63;;;;;8.40;97562.00;;;;5034882;28;20045;-63
2023/12/21 06:53:40;;;;;;;0.95;0.40;;;;;8.30;97543.00;;;;5034116;28;20064;-63
2023/12/21 06:56:09;;;;;;;0.45;0.45;;;;;8.30;97527.00;;;;5033426;28;20067;-64
2023/12/21 06:58:55;;;;;;;0.63;0.60;;;;;8.30;97534.00;;;;5034619;28;20041;-62
2023/12/21 07:01:25;;;;;;;1.10;0.60;;;;;8.20;97528.00;;;;5034599;28;20128;-63
2023/12/21 07:03:54;;;;;;;0.50;0.50;;;;;8.20;97527.00;;;;5032780;28;20087;-64
2023/12/21 07:06:21;;;;;;;0.60;0.50;;;;;8.30;97542.00;;;;5034445;28;20510;-63
2023/12/21 07:08:47;;;;;;;0.40;0.40;;;;;8.40;97516.00;;;;5034354;28;20133;-64
2023/12/21 07:11:14;;;;;;;0.50;0.50;;;;;8.30;97510.00;;;;5034847;28;20053;-64
2023/12/21 07:13:41;;;;;;;1.05;0.85;;;;;8.30;97504.00;;;;5033716;28;20490;-64
2023/12/21 07:16:09;;;;;;;0.68;0.30;;;;;8.40;97523.00;;;;5034198;28;20045;-63
2023/12/21 07:18:36;;;;;;;0.40;0.40;;;;;8.40;97526.00;;;;5034358;28;20379;-66
2023/12/21 07:21:05;;;;;;;0.30;0.30;;;;;8.30;97518.00;;;;5034067;28;20534;-63
2023/12/21 07:23:31;;;;;;;0.40;0.40;;;;;8.30;97540.00;;;;5033590;28;20049;-63
2023/12/21 07:25:58;;;;;;;0.43;0.43;;;;;8.40;97545.00;;;;5034090;28;20120;-63
2023/12/21 07:28:28;;;;;;;1.15;0.50;;;;;8.40;97549.00;;;;5034008;28;20077;-63
2023/12/21 07:30:55;;;;;;;0.50;0.43;;;;;8.40;97554.00;;;;5034046;28;20052;-64
2023/12/21 07:33:22;;;;;;;0.40;0.40;;;;;8.40;97540.00;;;;5032311;28;20046;-61
2023/12/21 07:35:49;;;;;;;0.30;0.30;;;;;8.50;97528.00;;;;5032696;28;20115;-64
2023/12/21 07:38:15;;;;;;;0.50;0.50;;;;;8.40;97510.00;;;;5033577;28;20045;-64
2023/12/21 07:40:42;;;;;;;0.50;0.50;;;;;8.40;97510.00;;;;5033726;28;20042;-64
2023/12/21 07:43:09;;;;;;;0.40;0.40;;;;;8.50;97497.00;;;;5033515;28;20112;-63
2023/12/21 07:45:35;;;;;;;0.40;0.40;;;;;8.50;97505.00;;;;5032915;28;20129;-64
2023/12/21 07:48:02;;;;;;;0.32;0.32;;;;;8.50;97504.00;;;;5033340;28;20052;-64
2023/12/21 07:50:29;;;;;;;0.73;0.73;;;;;8.50;97498.00;;;;5033276;28;20631;-63
2023/12/21 07:52:57;;;;;;;0.40;0.40;;;;;8.50;97494.00;;;;5032126;28;20095;-64
2023/12/21 07:55:24;;;;;;;0.40;0.40;;;;;8.60;97486.00;;;;5032821;28;20494;-63
2023/12/21 07:57:51;;;;;;;0.73;0.43;;;;;8.60;97493.00;;;;5033209;28;20632;-63
2023/12/21 08:00:17;;;;;;;0.60;0.60;;;;;8.60;97502.00;;;;5032253;28;20042;-63
2023/12/21 08:02:44;;;;;;;0.40;0.40;;;;;8.70;97509.00;;;;5032929;28;20579;-64
2023/12/21 08:05:12;;;;;;;0.55;0.50;;;;;8.70;97489.00;;;;5031117;28;20140;-63
2023/12/21 08:07:40;;;;;;;0.32;0.32;;;;;8.70;97495.00;;;;5031543;28;20057;-63
2023/12/21 08:10:07;;;;;;;0.40;0.40;;;;;8.70;97478.00;;;;5033137;28;20037;-63
2023/12/21 08:12:35;;;;;;;2.55;0.50;;;;;8.70;97465.00;;;;5033056;28;20041;-63
2023/12/21 08:15:02;;;;;;;1.48;0.80;;;;;8.70;97477.00;;;;5032743;28;20128;-63
2023/12/21 08:17:30;;;;;;;0.30;0.30;;;;;8.70;97482.00;;;;5032784;28;20052;-63
2023/12/21 08:19:57;;;;;;;1.27;1.00;;;;;8.70;97480.00;;;;5033094;28;20045;-64
2023/12/21 08:22:23;;;;;;;0.50;0.50;;;;;8.70;97489.00;;;;5032622;28;20128;-63
2023/12/21 08:24:56;;;;;;;0.45;0.45;;;;;8.70;97473.00;;;;5032169;28;20080;-63
2023/12/21 08:27:23;;;;;;;0.45;0.45;;;;;8.70;97465.00;;;;5031558;28;20049;-63
2023/12/21 08:29:51;;;;;;;0.45;0.45;;;;;8.70;97461.00;;;;5032624;28;20457;-63
2023/12/21 08:32:18;;;;;;;0.50;0.50;;;;;8.70;97458.00;;;;5032612;28;20056;-64
2023/12/21 08:34:45;;;;;;;0.70;0.40;;;;;8.70;97461.00;;;;5032112;28;20127;-63
2023/12/21 08:37:14;;;;;;;0.80;0.80;;;;;8.80;97445.00;;;;5032461;28;20049;-64
2023/12/21 08:39:41;;;;;;;2.38;0.88;;;;;8.80;97450.00;;;;5032505;28;20069;-63
2023/12/21 08:42:10;;;;;;;0.85;0.73;;;;;8.80;97453.00;;;;5032564;28;20042;-63
2023/12/21 08:44:37;;;;;;;0.85;0.40;;;;;8.80;97445.00;;;;5031840;28;20045;-63
2023/12/21 08:47:05;;;;;;;0.50;0.50;;;;;8.80;97437.00;;;;5031194;28;20383;-64
2023/12/21 08:49:32;;;;;;;1.15;0.40;;;;;8.90;97438.00;;;;5032315;28;20095;-63
2023/12/21 08:51:59;;;;;;;0.40;0.40;;;;;8.90;97432.00;;;;5032628;28;20049;-63
2023/12/21 08:54:26;;;;;;;0.40;0.40;;;;;8.90;97441.00;;;;5031867;28;20049;-63
2023/12/21 08:56:52;;;;;;;0.55;0.55;;;;;8.90;97424.00;;;;5032398;28;20053;-63
2023/12/21 08:59:19;;;;;;;0.40;0.40;;;;;8.90;97420.00;;;;5032271;28;20048;-63
2023/12/21 09:01:46;;;;;;;0.40;0.40;;;;;8.90;97424.00;;;;5032471;28;20132;-63
2023/12/21 09:04:12;;;;;;;1.58;1.05;;;;;8.90;97432.00;;;;5031591;28;20087;-63
2023/12/21 09:06:39;;;;;;;7.63;5.60;;;;;8.90;97398.00;;;;5032614;28;20041;-63
2023/12/21 09:09:06;;;;;;;16.33;10.15;;;;;9.00;97385.00;;;;5030975;28;20038;-64
2023/12/21 09:11:33;;;;;;;2.53;2.30;;;;;9.00;97391.00;;;;5031863;28;20053;-64
2023/12/21 09:13:59;;;;;;;1.00;0.90;;;;;9.00;97378.00;;;;5031440;28;20081;-63
2023/12/21 09:16:26;;;;;;;0.70;0.70;;;;;9.10;97366.00;;;;5030902;28;20041;-63
2023/12/21 09:18:54;;;;;;;0.60;0.60;;;;;9.10;97392.00;;;;5032121;28;20490;-63
2023/12/21 09:21:21;;;;;;;0.30;0.30;;;;;9.10;97386.00;;;;5032222;28;20638;-63
2023/12/21 09:23:48;;;;;;;0.70;0.70;;;;;9.10;97377.00;;;;5031946;28;20400;-63
2023/12/21 09:26:14;;;;;;;2.33;2.15;;;;;9.10;97362.00;;;;5032156;28;20049;-63
2023/12/21 09:28:41;;;;;;;1.10;0.90;;;;;9.20;97341.00;;;;5032286;28;20049;-64
2023/12/21 09:31:09;;;;;;;0.98;0.98;;;;;9.20;97339.00;;;;5031898;28;20044;-64
2023/12/21 09:33:38;;;;;;;0.52;0.52;;;;;9.20;97358.00;;;;5031327;28;20048;-63
2023/12/21 09:36:05;;;;;;;1.20;0.93;;;;;9.30;97372.00;;;;5030567;28;20053;-64
2023/12/21 09:38:32;;;;;;;0.40;0.40;;;;;9.30;97376.00;;;;5014140;28;20498;-63
2023/12/21 09:40:59;;;;;;;0.45;0.40;;;;;9.30;97364.00;;;;5031933;28;20048;-63
2023/12/21 09:43:27;;;;;;;0.65;0.65;;;;;9.30;97353.00;;;;5031250;28;20084;-64
2023/12/21 09:45:57;;;;;;;0.45;0.40;;;;;9.40;97349.00;;;;5031964;28;20049;-63
2023/12/21 09:48:25;;;;;;;0.40;0.40;;;;;9.40;97343.00;;;;5031657;28;20137;-63
2023/12/21 09:50:52;;;;;;;0.40;0.40;;;;;9.40;97332.00;;;;5031644;28;20402;-63
2023/12/21 09:53:22;;;;;;;0.40;0.40;;;;;9.40;97305.00;;;;5031686;28;20046;-63
2023/12/21 09:55:50;;;;;;;0.73;0.60;;;;;9.40;97296.00;;;;5031890;28;20095;-63
2023/12/21 09:58:18;;;;;;;3.00;0.50;;;;;9.40;97295.00;;;;5031575;28;20049;-63
2023/12/21 10:00:45;;;;;;;0.50;0.50;;;;;9.40;97284.00;;;;5031646;28;20095;-63
2023/12/21 10:03:12;;;;;;;0.50;0.50;;;;;9.40;97275.00;;;;5031562;28;20053;-63
2023/12/21 10:05:40;;;;;;;0.43;0.43;;;;;9.40;97260.00;;;;5030731;28;20049;-63
2023/12/21 10:08:08;;;;;;;0.73;0.52;;;;;9.40;97264.00;;;;5031514;28;20133;-63
2023/12/21 10:10:38;;;;;;;1.73;0.50;;;;;9.40;97259.00;;;;5030491;28;20042;-63
2023/12/21 10:13:05;;;;;;;0.63;0.63;;;;;9.50;97252.00;;;;5031618;28;20461;-63
2023/12/21 10:15:35;;;;;;;0.30;0.30;;;;;9.50;97227.00;;;;5031048;28;20060;-63
2023/12/21 10:18:05;;;;;;;0.50;0.50;;;;;9.50;97208.00;;;;5031389;28;20136;-63
2023/12/21 10:20:32;;;;;;;0.60;0.60;;;;;9.40;97239.00;;;;5030307;28;20042;-63
2023/12/21 10:22:58;;;;;;;0.40;0.40;;;;;9.50;97242.00;;;;5031044;28;20087;-63
2023/12/21 10:25:25;;;;;;;0.40;0.40;;;;;9.50;97245.00;;;;5034659;28;20046;-62
2023/12/21 10:27:54;;;;;;;0.50;0.50;;;;;9.50;97246.00;;;;5035624;28;20053;-64
2023/12/21 10:30:22;;;;;;;0.40;0.40;;;;;9.50;97239.00;;;;5035114;28;20041;-63
2023/12/21 10:32:56;;;;;;;0.40;0.40;;;;;9.50;97227.00;;;;5033828;28;20475;-62
2023/12/21 10:35:24;;;;;;;0.50;0.50;;;;;9.50;97230.00;;;;5034567;28;20045;-63
2023/12/21 10:37:52;;;;;;;0.40;0.40;;;;;9.50;97213.00;;;;5035050;28;20056;-62
2023/12/21 10:40:18;;;;;;;0.85;0.50;;;;;9.50;97217.00;;;;5034933;28;20045;-63
2023/12/21 10:42:49;;;;;;;0.40;0.40;;;;;9.60;97214.00;;;;5035145;28;20129;-63
2023/12/21 10:45:16;;;;;;;0.40;0.40;;;;;9.60;97210.00;;;;5034237;28;20056;-62
2023/12/21 10:48:22;;;;;;;0.50;0.50;;;;;9.60;97204.00;;;;5034664;28;20107;-63
2023/12/21 10:50:51;;;;;;;0.47;0.47;;;;;9.70;97198.00;;;;5034701;28;20048;-63
2023/12/21 10:53:22;;;;;;;0.30;0.30;;;;;9.70;97185.00;;;;5033397;28;20064;-63
2023/12/21 10:55:49;;;;;;;0.40;0.40;;;;;9.70;97168.00;;;;5034880;28;20049;-63
2023/12/21 10:58:17;;;;;;;0.35;0.35;;;;;9.70;97162.00;;;;5034664;28;20045;-63
2023/12/21 11:00:44;;;;;;;0.43;0.40;;;;;9.60;97144.00;;;;5034526;28;20093;-63
2023/12/21 11:03:16;;;;;;;0.35;0.35;;;;;9.60;97150.00;;;;5034382;28;20099;-63
2023/12/21 11:05:44;;;;;;;0.40;0.40;;;;;9.70;97150.00;;;;5033862;28;20053;-63
2023/12/21 11:08:12;;;;;;;0.43;0.43;;;;;9.60;97138.00;;;;5034333;28;20117;-63
2023/12/21 11:10:38;;;;;;;0.40;0.40;;;;;9.70;97136.00;;;;5033217;28;20618;-63
2023/12/21 11:13:05;;;;;;;0.40;0.40;;;;;9.70;97135.00;;;;5034364;28;20049;-63
2023/12/21 11:15:33;;;;;;;0.73;0.50;;;;;9.70;97146.00;;;;5033748;28;20107;-63
2023/12/21 11:18:16;;;;;;;0.50;0.50;;;;;9.80;97136.00;;;;5034135;28;20068;-64
2023/12/21 11:21:04;;;;;;;0.32;0.30;;;;;9.80;97117.00;;;;5034266;28;20052;-63
2023/12/21 11:23:32;;;;;;;0.30;0.30;;;;;9.80;97110.00;;;;5033540;28;20114;-62
2023/12/21 11:25:59;;;;;;;0.40;0.40;;;;;9.70;97111.00;;;;5034056;28;20046;-64
2023/12/21 11:28:28;;;;;;;0.73;0.50;;;;;9.70;97107.00;;;;5032634;28;20049;-63
2023/12/21 11:30:55;;;;;;;0.40;0.40;;;;;9.80;97101.00;;;;5033863;28;20041;-62
2023/12/21 11:33:29;;;;;;;0.30;0.30;;;;;9.80;97099.00;;;;5032473;28;20128;-63
2023/12/21 11:35:59;;;;;;;0.57;0.50;;;;;9.80;97104.00;;;;5032511;28;20053;-64
2023/12/21 11:38:52;;;;;;;0.40;0.40;;;;;9.90;97090.00;;;;5033610;28;20073;-63
2023/12/21 11:41:23;;;;;;;0.50;0.50;;;;;9.80;97082.00;;;;5033727;28;20037;-63
2023/12/21 11:44:02;;;;;;;0.80;0.60;;;;;9.80;97060.00;;;;5031733;28;20060;-63
2023/12/21 11:46:33;;;;;;;0.40;0.40;;;;;9.80;97058.00;;;;5033586;28;20077;-63
2023/12/21 11:49:00;;;;;;;0.50;0.50;;;;;9.90;97041.00;;;;5032361;28;20095;-63
2023/12/21 11:51:26;;;;;;;0.52;0.50;;;;;9.90;97041.00;;;;5033492;28;20045;-63
2023/12/21 11:53:53;;;;;;;0.90;0.70;;;;;9.90;97027.00;;;;5032939;28;20057;-63
2023/12/21 11:56:20;;;;;;;0.52;0.52;;;;;9.90;97017.00;;;;5033422;28;20055;-62
2023/12/21 11:58:47;;;;;;;0.30;0.30;;;;;9.90;97026.00;;;;5033450;28;20042;-62
2023/12/21 12:01:22;;;;;;;0.40;0.40;;;;;9.90;97039.00;;;;5033200;28;20112;-61
2023/12/21 12:03:50;;;;;;;0.35;0.35;;;;;10.00;97048.00;;;;5033025;28;20433;-63
2023/12/21 12:06:17;;;;;;;0.43;0.43;;;;;10.00;97037.00;;;;5033109;28;20415;-63
2023/12/21 12:08:43;;;;;;;0.43;0.43;;;;;10.10;97026.00;;;;5033184;28;20042;-63
2023/12/21 12:11:10;;;;;;;0.60;0.60;;;;;10.10;97013.00;;;;5033131;28;20046;-64
2023/12/21 12:13:37;;;;;;;0.50;0.50;;;;;10.10;97022.00;;;;5031378;28;20044;-63
2023/12/21 12:16:04;;;;;;;0.65;0.65;;;;;10.10;97015.00;;;;5032871;28;20045;-63
2023/12/21 12:18:32;;;;;;;1.40;0.68;;;;;10.00;97011.00;;;;5031836;28;20042;-63
2023/12/21 12:21:00;;;;;;;0.60;0.60;;;;;9.90;97019.00;;;;5032870;28;20038;-63
2023/12/21 12:23:27;;;;;;;1.30;0.70;;;;;9.90;97015.00;;;;5032313;28;20069;-63
2023/12/21 12:25:54;;;;;;;0.70;0.70;;;;;9.80;97009.00;;;;5033069;28;20532;-63
2023/12/21 12:28:23;;;;;;;0.77;0.70;;;;;9.90;97042.00;;;;5032841;28;20059;-62